Time;durP1;ratioP1;P1;durP2;ratioP2;P2;SDS_P1;SDS_P2;PMS_P1;PMS_P2;Temp;Humidity;BMP_temperature;BMP_pressure;BME280_temperature;BME280_humidity;BME280_pressure;Samples;Min_cycle;Max_cycle;Signal;HPM_P1;HPM_P2
2021/03/29 00:01:41;;;;;;;6.33;4.33;;;;;;;11.04;62.48;102317.16;6202294;28;20236;-55
2021/03/29 00:05:03;;;;;;;11.47;5.00;;;;;;;10.90;62.83;102310.03;6202222;28;20598;-53
2021/03/29 00:08:27;;;;;;;8.00;5.03;;;;;;;11.04;62.57;102324.13;6211629;28;20233;-54
2021/03/29 00:11:49;;;;;;;9.77;4.97;;;;;;;11.08;62.52;102305.06;6213275;28;20230;-51
2021/03/29 00:15:15;;;;;;;11.83;5.27;;;;;;;11.00;63.23;102304.09;6208145;28;20674;-53
2021/03/29 00:18:36;;;;;;;12.70;5.63;;;;;;;11.15;62.79;102309.50;6193779;28;20233;-52
2021/03/29 00:21:58;;;;;;;6.17;4.10;;;;;;;10.98;62.91;102284.94;6199112;28;20225;-54
2021/03/29 00:25:20;;;;;;;9.20;4.47;;;;;;;10.98;62.64;102288.41;6205048;28;20237;-54
2021/03/29 00:28:41;;;;;;;11.53;5.60;;;;;;;11.18;62.79;102277.34;6200895;28;20261;-54
2021/03/29 00:32:02;;;;;;;15.23;5.83;;;;;;;10.80;64.04;102272.56;6213948;28;20241;-55
2021/03/29 00:35:24;;;;;;;9.70;4.93;;;;;;;10.72;63.96;102277.66;6209631;28;20222;-56
2021/03/29 00:38:47;;;;;;;7.03;3.83;;;;;;;10.75;63.71;102290.72;6203722;28;20230;-54
2021/03/29 00:42:09;;;;;;;8.33;4.90;;;;;;;11.03;62.84;102268.50;6207034;28;20630;-54
2021/03/29 00:45:29;;;;;;;10.60;4.67;;;;;;;10.99;63.17;102278.84;6202510;28;20257;-54
2021/03/29 00:48:51;;;;;;;9.40;4.27;;;;;;;11.01;63.05;102287.56;6212653;28;20229;-56
2021/03/29 00:52:12;;;;;;;9.10;5.07;;;;;;;11.04;62.93;102278.06;6193857;28;20230;-54
2021/03/29 00:55:33;;;;;;;7.67;4.40;;;;;;;10.78;63.57;102289.91;6197533;28;20229;-56
2021/03/29 00:58:56;;;;;;;6.93;3.90;;;;;;;10.76;63.75;102287.28;6206558;28;20781;-52
2021/03/29 01:02:18;;;;;;;8.03;4.30;;;;;;;11.13;62.44;102287.75;6190842;28;20233;-53
2021/03/29 01:05:39;;;;;;;7.03;4.40;;;;;;;11.10;62.04;102286.81;6210152;28;20225;-55
2021/03/29 01:09:05;;;;;;;13.43;5.27;;;;;;;11.11;62.60;102273.81;6205113;28;20236;-54
2021/03/29 01:12:26;;;;;;;9.30;4.50;;;;;;;10.92;62.95;102272.72;6206464;28;20238;-54
2021/03/29 01:15:49;;;;;;;13.43;4.77;;;;;;;11.22;62.03;102272.22;6203734;28;20241;-56
2021/03/29 01:19:17;;;;;;;8.57;3.70;;;;;;;11.11;61.94;102267.69;6202866;28;20312;-56
2021/03/29 01:22:42;;;;;;;10.90;4.27;;;;;;;10.85;62.52;102270.88;6194922;28;20516;-55
2021/03/29 01:26:09;;;;;;;7.93;4.23;;;;;;;11.16;61.52;102279.94;6201652;28;20241;-51
2021/03/29 01:29:31;;;;;;;5.87;3.83;;;;;;;10.97;61.94;102271.03;6205513;28;20225;-50
2021/03/29 01:32:53;;;;;;;10.20;4.13;;;;;;;10.82;62.02;102279.53;6196307;28;20237;-54
2021/03/29 01:36:15;;;;;;;10.33;5.30;;;;;;;11.11;61.52;102268.59;6196498;28;20793;-49
2021/03/29 01:39:36;;;;;;;9.37;4.50;;;;;;;10.99;61.59;102269.34;6188134;28;20236;-56
2021/03/29 01:42:58;;;;;;;9.47;5.17;;;;;;;10.96;61.73;102273.63;6183758;28;20229;-54
2021/03/29 01:46:19;;;;;;;10.90;5.27;;;;;;;11.20;61.37;102276.50;6177584;28;20225;-54
2021/03/29 01:49:40;;;;;;;10.33;5.20;;;;;;;11.07;61.29;102281.56;6195229;28;20233;-55
2021/03/29 01:53:03;;;;;;;11.77;4.67;;;;;;;11.08;61.22;102289.41;6197681;28;20245;-55
2021/03/29 01:56:24;;;;;;;11.73;4.83;;;;;;;11.13;60.85;102277.31;6193476;28;20247;-53
2021/03/29 01:59:44;;;;;;;14.83;5.27;;;;;;;11.16;61.00;102268.66;6204465;28;20228;-53
2021/03/29 02:03:06;;;;;;;6.73;4.67;;;;;;;10.99;61.07;102277.16;6188510;28;557536;-54
2021/03/29 02:06:27;;;;;;;8.93;4.43;;;;;;;11.05;61.03;102265.94;6212147;28;20661;-54
2021/03/29 02:09:48;;;;;;;11.57;5.50;;;;;;;10.92;61.72;102257.06;6210413;28;20615;-55
2021/03/29 02:13:10;;;;;;;10.10;5.13;;;;;;;10.93;61.17;102247.50;6208553;28;20225;-56
2021/03/29 02:16:33;;;;;;;10.10;5.33;;;;;;;10.84;61.44;102248.28;6207817;28;20517;-55
2021/03/29 02:19:55;;;;;;;10.77;6.80;;;;;;;11.02;61.05;102242.41;6201704;28;20291;-54
2021/03/29 02:23:19;;;;;;;13.17;5.00;;;;;;;11.00;60.78;102233.69;6212422;28;20555;-53
2021/03/29 02:26:42;;;;;;;7.47;4.30;;;;;;;10.94;60.60;102228.44;6203629;28;20234;-54
2021/03/29 02:30:08;;;;;;;12.90;6.03;;;;;;;10.90;61.05;102240.53;6194851;28;20626;-54
2021/03/29 02:33:29;;;;;;;10.60;5.00;;;;;;;10.85;61.11;102229.16;6215663;28;20229;-55
2021/03/29 02:36:52;;;;;;;11.73;6.20;;;;;;;11.26;59.75;102233.97;6207022;28;20737;-54
2021/03/29 02:40:15;;;;;;;7.87;4.80;;;;;;;10.99;60.43;102238.06;6208515;28;20272;-52
2021/03/29 02:43:37;;;;;;;9.53;5.17;;;;;;;10.94;60.53;102244.06;6206556;28;20245;-54
2021/03/29 02:46:58;;;;;;;7.63;4.70;;;;;;;10.77;60.85;102246.44;6214213;28;20237;-55
2021/03/29 02:50:22;;;;;;;9.33;4.50;;;;;;;10.69;61.42;102251.56;6202504;28;20559;-53
2021/03/29 02:53:48;;;;;;;8.03;4.67;;;;;;;11.08;60.28;102252.03;6204504;28;20271;-53
2021/03/29 02:57:09;;;;;;;7.43;4.23;;;;;;;11.14;59.76;102252.97;6212553;28;20257;-58
2021/03/29 03:00:32;;;;;;;8.23;4.80;;;;;;;10.81;60.19;102238.69;6193285;28;20241;-55
2021/03/29 03:03:54;;;;;;;13.77;4.73;;;;;;;11.31;59.30;102242.75;6189170;28;20227;-56
2021/03/29 03:07:14;;;;;;;6.30;4.83;;;;;;;10.97;59.68;102257.13;6205652;28;20236;-53
2021/03/29 03:10:36;;;;;;;8.27;4.83;;;;;;;11.05;59.28;102242.47;6210675;28;20598;-56
2021/03/29 03:13:57;;;;;;;9.13;5.47;;;;;;;10.89;59.61;102236.16;6213961;28;20232;-58
2021/03/29 03:17:18;;;;;;;9.17;5.00;;;;;;;10.95;59.98;102241.47;6214526;28;20233;-55
2021/03/29 03:20:40;;;;;;;8.73;4.97;;;;;;;11.15;59.10;102246.91;6197784;28;20245;-54
2021/03/29 03:24:01;;;;;;;13.17;5.77;;;;;;;11.37;58.76;102247.16;6210044;28;20322;-52
2021/03/29 03:27:22;;;;;;;9.57;5.53;;;;;;;11.16;58.95;102230.41;6214962;28;20247;-56
2021/03/29 03:30:45;;;;;;;7.93;5.37;;;;;;;11.05;59.40;102247.69;6197365;28;20486;-56
2021/03/29 03:34:06;;;;;;;8.73;5.57;;;;;;;11.09;59.30;102254.69;6214360;28;20237;-55
2021/03/29 03:37:26;;;;;;;5.67;4.30;;;;;;;11.47;58.20;102255.94;6209459;28;20241;-57
2021/03/29 03:40:51;;;;;;;9.13;4.90;;;;;;;10.82;59.72;102261.28;6207953;28;20237;-55
2021/03/29 03:44:14;;;;;;;6.20;3.93;;;;;;;11.19;58.97;102250.44;6212687;28;20557;-54
2021/03/29 03:47:37;;;;;;;8.87;5.00;;;;;;;11.01;59.35;102261.50;6211443;28;20344;-54
2021/03/29 03:50:59;;;;;;;6.33;5.30;;;;;;;11.09;59.18;102249.47;6209551;28;20491;-54
2021/03/29 03:54:20;;;;;;;9.03;5.73;;;;;;;11.03;59.40;102254.56;6203238;28;20229;-53
2021/03/29 03:57:41;;;;;;;6.53;4.70;;;;;;;11.20;58.66;102258.25;6204442;28;20241;-55
2021/03/29 04:01:06;;;;;;;11.37;4.93;;;;;;;10.84;60.06;102253.50;6200965;28;20254;-53
2021/03/29 04:04:26;;;;;;;11.37;6.00;;;;;;;10.94;59.14;102262.31;6212914;28;20233;-55
2021/03/29 04:07:49;;;;;;;11.43;4.97;;;;;;;11.28;58.80;102265.28;6189664;28;20613;-55
2021/03/29 04:11:10;;;;;;;10.90;5.77;;;;;;;11.01;58.77;102258.91;6199536;28;20730;-54
2021/03/29 04:14:31;;;;;;;12.17;6.77;;;;;;;11.40;57.91;102258.50;6209423;28;20233;-52
2021/03/29 04:17:52;;;;;;;10.37;6.00;;;;;;;11.19;58.38;102266.94;6207493;28;20221;-54
2021/03/29 04:21:13;;;;;;;8.93;5.33;;;;;;;10.90;59.19;102266.59;6210113;28;20234;-55
2021/03/29 04:24:33;;;;;;;9.57;5.57;;;;;;;11.51;57.62;102263.81;6195151;28;20241;-56
2021/03/29 04:27:54;;;;;;;9.57;4.93;;;;;;;11.11;58.53;102266.00;6191707;28;20498;-56
2021/03/29 04:31:15;;;;;;;11.47;4.80;;;;;;;11.27;58.32;102268.78;6200231;28;20246;-53
2021/03/29 04:34:36;;;;;;;7.03;5.00;;;;;;;11.25;58.70;102271.38;6201331;28;20731;-53
2021/03/29 04:37:57;;;;;;;6.83;4.53;;;;;;;11.18;58.83;102274.75;6209129;28;20232;-54
2021/03/29 04:41:18;;;;;;;9.17;4.40;;;;;;;11.03;59.20;102265.91;6205645;28;20228;-53
2021/03/29 04:44:38;;;;;;;7.93;5.30;;;;;;;11.33;58.60;102272.31;6207826;28;20244;-51
2021/03/29 04:47:59;;;;;;;14.43;5.83;;;;;;;11.16;59.11;102266.91;6199917;28;20225;-54
2021/03/29 04:51:20;;;;;;;11.17;5.10;;;;;;;11.24;58.55;102264.38;6202173;28;20217;-51
2021/03/29 04:54:40;;;;;;;9.43;5.30;;;;;;;11.12;58.51;102259.03;6200938;28;21499;-52
2021/03/29 04:58:00;;;;;;;9.83;5.13;;;;;;;11.14;58.89;102257.31;6203358;28;20225;-55
2021/03/29 05:01:21;;;;;;;5.70;4.50;;;;;;;10.84;59.10;102269.13;6198211;28;20249;-53
2021/03/29 05:04:42;;;;;;;4.73;3.40;;;;;;;10.61;59.61;102259.28;6201716;28;20259;-50
2021/03/29 05:08:04;;;;;;;8.53;5.33;;;;;;;11.01;58.47;102269.31;6208776;28;20245;-56
2021/03/29 05:11:24;;;;;;;5.60;4.17;;;;;;;11.01;58.47;102261.50;6205671;28;20253;-57
2021/03/29 05:14:45;;;;;;;12.27;4.93;;;;;;;10.98;59.17;102271.91;6193886;28;20238;-51
2021/03/29 05:18:05;;;;;;;11.40;4.57;;;;;;;11.04;58.51;102275.47;6195920;28;20311;-54
2021/03/29 05:21:26;;;;;;;5.83;4.17;;;;;;;11.27;57.70;102267.03;6198492;28;21590;-50
2021/03/29 05:24:47;;;;;;;6.23;3.80;;;;;;;10.98;58.56;102269.31;6207429;28;20545;-54
2021/03/29 05:28:07;;;;;;;8.40;5.10;;;;;;;11.22;57.41;102267.00;6203592;28;20240;-56
2021/03/29 05:31:28;;;;;;;12.77;5.83;;;;;;;11.31;57.61;102265.34;6212290;28;20237;-53
2021/03/29 05:34:50;;;;;;;7.63;4.57;;;;;;;11.13;58.35;102261.66;6204949;28;20261;-55
2021/03/29 05:38:10;;;;;;;10.53;4.50;;;;;;;10.83;58.16;102263.03;6208870;28;20332;-55
2021/03/29 05:41:31;;;;;;;8.60;5.30;;;;;;;11.01;57.77;102269.31;6201260;28;20233;-52
2021/03/29 05:44:58;;;;;;;9.17;5.57;;;;;;;11.09;57.73;102270.31;6207600;28;20237;-56
2021/03/29 05:48:19;;;;;;;7.30;5.03;;;;;;;10.89;58.21;102271.78;6198268;28;20845;-54
2021/03/29 05:51:40;;;;;;;6.27;3.80;;;;;;;10.90;58.04;102282.25;6192821;28;20918;-55
2021/03/29 05:55:01;;;;;;;8.53;4.67;;;;;;;11.18;57.34;102280.81;6202637;28;20229;-57
2021/03/29 05:58:37;;;;;;;8.77;4.70;;;;;;;11.19;57.41;102282.59;6212103;28;20236;-57
2021/03/29 06:01:57;;;;;;;10.80;3.90;;;;;;;11.51;55.97;102283.81;6183850;28;20237;-55
2021/03/29 06:05:32;;;;;;;9.50;4.40;;;;;;;11.27;56.84;102284.44;6199112;28;20674;-57
2021/03/29 06:08:53;;;;;;;10.70;4.40;;;;;;;11.16;57.21;102292.09;6206697;28;20217;-55
2021/03/29 06:12:15;;;;;;;7.90;3.37;;;;;;;11.28;56.72;102275.72;6202472;28;20229;-55
2021/03/29 06:15:36;;;;;;;9.93;5.07;;;;;;;11.30;56.94;102274.00;6207764;28;20328;-58
2021/03/29 06:18:57;;;;;;;6.37;3.73;;;;;;;11.61;55.87;102285.66;6203949;28;21005;-53
2021/03/29 06:22:20;;;;;;;8.07;4.07;;;;;;;11.37;56.34;102296.72;6204835;28;20234;-57
2021/03/29 06:25:41;;;;;;;11.83;4.77;;;;;;;11.31;56.13;102289.69;6202730;28;20225;-59
2021/03/29 06:29:17;;;;;;;8.37;4.10;;;;;;;11.20;56.79;102286.94;6201988;28;20225;-54
2021/03/29 06:32:39;;;;;;;8.73;4.10;;;;;;;11.20;56.46;102284.31;6208869;28;20237;-58
2021/03/29 06:36:00;;;;;;;9.77;4.40;;;;;;;11.68;55.48;102276.16;6201878;28;20233;-56
2021/03/29 06:39:21;;;;;;;8.30;3.40;;;;;;;11.72;55.56;102277.94;6210172;28;20501;-56
2021/03/29 06:42:42;;;;;;;10.53;6.93;;;;;;;11.76;55.45;102280.56;6208558;28;20316;-59
2021/03/29 06:46:07;;;;;;;8.33;5.30;;;;;;;11.66;55.53;102270.06;6203781;28;20245;-57
2021/03/29 06:49:42;;;;;;;8.90;5.27;;;;;;;11.55;56.20;102276.00;6208581;28;20236;-56
2021/03/29 06:53:02;;;;;;;8.87;4.57;;;;;;;12.04;54.60;102266.91;6208706;28;20355;-56
2021/03/29 06:56:25;;;;;;;9.90;4.57;;;;;;;11.75;55.25;102283.19;6208961;28;20253;-57
2021/03/29 06:59:46;;;;;;;11.03;4.83;;;;;;;12.38;53.99;102281.97;6206467;28;20237;-59
2021/03/29 07:03:08;;;;;;;9.10;4.33;;;;;;;11.94;55.10;102279.91;6211583;28;20324;-56
2021/03/29 07:06:30;;;;;;;13.20;5.27;;;;;;;12.11;55.16;102290.47;6211947;28;20622;-55
2021/03/29 07:09:52;;;;;;;9.67;4.50;;;;;;;11.71;55.84;102297.03;6204549;28;20320;-55
2021/03/29 07:13:15;;;;;;;13.30;4.43;;;;;;;12.00;55.62;102298.25;6213169;28;20315;-58
2021/03/29 07:16:36;;;;;;;11.77;5.87;;;;;;;11.90;56.22;102299.00;6211865;28;20241;-58
2021/03/29 07:19:57;;;;;;;11.47;5.27;;;;;;;12.11;55.28;102302.66;6213473;28;20225;-60
2021/03/29 07:23:18;;;;;;;10.63;4.77;;;;;;;11.93;56.22;102314.72;6215781;28;20237;-55
2021/03/29 07:26:42;;;;;;;11.40;4.23;;;;;;;11.93;55.87;102299.03;6202743;28;20237;-57
2021/03/29 07:30:03;;;;;;;9.23;4.67;;;;;;;12.10;55.43;102296.59;6194425;28;20237;-53
2021/03/29 07:33:24;;;;;;;7.37;4.30;;;;;;;12.28;54.43;102284.53;6207070;28;20225;-58
2021/03/29 07:36:47;;;;;;;14.77;6.83;;;;;;;12.32;54.41;102305.44;6210126;28;20253;-55
2021/03/29 07:40:39;;;;;;;16.47;4.43;;;;;;;12.24;54.75;102304.53;6211322;28;20298;-53
2021/03/29 07:44:11;;;;;;;9.93;5.50;;;;;;;12.69;53.95;102303.06;6211454;28;20225;-57
2021/03/29 07:47:41;;;;;;;8.73;4.97;;;;;;;12.63;53.29;102308.28;6206145;28;20523;-57
2021/03/29 07:51:02;;;;;;;7.57;4.07;;;;;;;12.50;53.95;102314.28;6211135;28;20323;-57
2021/03/29 07:54:49;;;;;;;9.20;3.80;;;;;;;12.30;54.38;102312.41;6203158;28;20501;-56
2021/03/29 07:58:14;;;;;;;7.93;3.70;;;;;;;12.73;53.49;102320.53;6207405;28;20229;-54
2021/03/29 08:02:00;;;;;;;12.03;4.30;;;;;;;12.29;54.53;102308.06;6209592;28;20233;-58
2021/03/29 08:05:36;;;;;;;6.73;4.70;;;;;;;12.60;53.96;102318.69;6200540;28;20343;-58
2021/03/29 08:08:56;;;;;;;9.03;5.17;;;;;;;13.10;52.72;102310.25;6213772;28;20229;-58
2021/03/29 08:12:24;;;;;;;11.80;4.60;;;;;;;12.86;53.56;102337.16;6191773;28;20233;-58
2021/03/29 08:16:03;;;;;;;13.07;5.77;;;;;;;13.07;53.29;102335.53;6196908;28;20236;-57
2021/03/29 08:19:25;;;;;;;10.97;5.03;;;;;;;12.62;54.36;102322.22;6204597;28;20252;-55
2021/03/29 08:22:46;;;;;;;8.90;5.20;;;;;;;13.19;53.18;102336.44;6204417;28;20316;-51
2021/03/29 08:26:20;;;;;;;10.57;4.63;;;;;;;13.20;53.18;102343.44;6198829;28;20233;-57
2021/03/29 08:29:42;;;;;;;10.57;4.50;;;;;;;13.15;53.64;102349.53;6204987;28;20233;-57
2021/03/29 08:33:11;;;;;;;11.30;5.70;;;;;;;13.06;54.05;102347.72;6210367;28;20229;-57
2021/03/29 08:36:31;;;;;;;7.63;4.63;;;;;;;13.26;54.06;102362.63;6205489;28;20229;-56
2021/03/29 08:39:54;;;;;;;6.33;4.50;;;;;;;12.75;55.20;102355.38;6207649;28;20242;-59
2021/03/29 08:43:14;;;;;;;7.93;5.17;;;;;;;12.76;55.13;102362.38;6210851;28;20249;-56
2021/03/29 08:46:36;;;;;;;10.13;5.50;;;;;;;12.71;55.49;102358.84;6213537;28;20651;-58
2021/03/29 08:50:01;;;;;;;9.17;4.40;;;;;;;12.64;55.51;102366.63;6196900;28;20225;-57
2021/03/29 08:53:22;;;;;;;12.87;4.73;;;;;;;12.99;54.63;102359.03;6210949;28;20237;-57
2021/03/29 08:56:43;;;;;;;8.07;4.50;;;;;;;12.88;55.48;102360.72;6203222;28;20233;-57
2021/03/29 09:00:11;;;;;;;6.63;3.80;;;;;;;13.33;54.20;102353.97;6201997;28;20226;-59
2021/03/29 09:03:31;;;;;;;10.83;5.00;;;;;;;13.12;54.31;102365.19;6207127;28;20621;-59
2021/03/29 09:06:54;;;;;;;7.43;5.07;;;;;;;13.50;53.63;102360.16;6200995;28;20250;-59
2021/03/29 09:10:22;;;;;;;11.40;5.43;;;;;;;14.28;53.23;102369.88;6206701;28;20229;-57
2021/03/29 09:13:42;;;;;;;9.37;5.00;;;;;;;13.36;53.75;102372.31;6202288;28;21857;-58
2021/03/29 09:17:03;;;;;;;9.63;5.40;;;;;;;13.89;52.72;102397.78;6209683;28;20222;-60
2021/03/29 09:20:25;;;;;;;6.60;4.03;;;;;;;13.19;54.18;102378.31;6209859;28;20236;-57
2021/03/29 09:23:47;;;;;;;8.83;4.63;;;;;;;13.59;53.46;102378.50;6210865;28;20233;-58
2021/03/29 09:27:10;;;;;;;11.40;5.23;;;;;;;13.40;53.66;102392.41;6202205;28;20233;-58
2021/03/29 09:30:31;;;;;;;9.50;5.13;;;;;;;13.87;52.64;102393.44;6196176;28;20225;-55
2021/03/29 09:33:53;;;;;;;11.43;4.80;;;;;;;14.31;51.80;102406.59;6204664;28;20364;-57
2021/03/29 09:37:18;;;;;;;11.03;5.73;;;;;;;14.41;51.65;102412.72;6208452;28;20312;-55
2021/03/29 09:40:39;;;;;;;8.30;5.13;;;;;;;14.74;50.28;102398.75;6205058;28;20237;-60
2021/03/29 09:44:07;;;;;;;8.60;4.47;;;;;;;14.88;49.91;102403.09;6202475;28;20260;-58
2021/03/29 09:47:29;;;;;;;10.57;4.30;;;;;;;15.75;47.95;102413.31;6204079;28;20232;-60
2021/03/29 09:50:51;;;;;;;10.73;5.10;;;;;;;16.17;46.93;102413.06;6195319;28;20357;-56
2021/03/29 09:54:23;;;;;;;8.30;4.90;;;;;;;15.92;47.10;102418.47;6208423;28;20248;-57
2021/03/29 09:57:45;;;;;;;7.67;4.37;;;;;;;15.46;48.94;102416.03;6196273;28;20225;-58
2021/03/29 10:01:18;;;;;;;6.60;4.40;;;;;;;15.64;48.38;102411.59;6206111;28;20320;-56
2021/03/29 10:04:38;;;;;;;9.43;5.43;;;;;;;15.84;48.05;102414.13;6188922;28;20809;-56
2021/03/29 10:07:59;;;;;;;10.90;4.23;;;;;;;14.95;50.10;102412.72;6208791;28;20233;-57
2021/03/29 10:11:19;;;;;;;6.50;4.40;;;;;;;15.79;48.29;102422.06;6201650;28;20678;-58
2021/03/29 10:14:41;;;;;;;11.40;4.00;;;;;;;16.84;46.13;102421.31;6202451;28;20225;-56
2021/03/29 10:18:10;;;;;;;6.30;4.63;;;;;;;15.96;48.32;102429.00;6204239;28;20253;-58
2021/03/29 10:21:31;;;;;;;6.93;4.07;;;;;;;15.65;48.88;102429.09;6215086;28;20259;-56
2021/03/29 10:25:01;;;;;;;14.77;5.10;;;;;;;16.03;47.83;102425.41;6209418;28;20241;-60
2021/03/29 10:28:21;;;;;;;11.00;4.73;;;;;;;16.29;47.46;102423.50;6209814;28;20229;-58
2021/03/29 10:31:43;;;;;;;10.87;5.37;;;;;;;16.07;49.20;102421.88;6209153;28;20983;-71
2021/03/29 10:35:05;;;;;;;11.70;4.73;;;;;;;15.40;49.93;102434.44;6203913;28;20234;-72
2021/03/29 10:38:25;;;;;;;7.97;4.77;;;;;;;16.33;48.16;102443.63;6200050;28;20230;-72
2021/03/29 10:41:46;;;;;;;11.13;5.30;;;;;;;16.93;46.58;102431.75;6191455;28;20234;-70
2021/03/29 10:45:09;;;;;;;7.83;5.13;;;;;;;17.30;45.65;102432.22;6200573;28;20240;-71
2021/03/29 10:48:31;;;;;;;8.87;4.80;;;;;;;17.33;45.91;102418.13;6209290;28;21437;-71
2021/03/29 10:51:51;;;;;;;7.90;4.73;;;;;;;17.13;46.42;102427.13;6195702;28;20982;-71
2021/03/29 10:55:13;;;;;;;9.20;4.73;;;;;;;17.77;45.45;102421.97;6210082;28;20225;-70
2021/03/29 10:58:34;;;;;;;7.07;4.20;;;;;;;17.06;46.51;102419.31;6210128;28;20305;-71
2021/03/29 11:01:55;;;;;;;6.43;4.03;;;;;;;17.96;44.57;102422.63;6193002;28;20506;-70
2021/03/29 11:05:16;;;;;;;7.13;4.45;;;;;;;20.55;39.39;102423.72;6197883;28;20229;-71
2021/03/29 11:08:37;;;;;;;10.18;6.47;;;;;;;19.85;39.50;102429.78;6209294;28;20236;-70
2021/03/29 11:11:57;;;;;;;8.80;5.32;;;;;;;22.83;34.55;102408.91;6200081;28;20229;-70
2021/03/29 11:15:18;;;;;;;7.18;4.95;;;;;;;27.15;28.28;102426.31;6206334;28;20232;-70
2021/03/29 11:18:39;;;;;;;8.93;4.35;;;;;;;25.01;29.87;102418.06;6205380;28;20260;-59
2021/03/29 11:22:01;;;;;;;6.53;4.00;;;;;;;23.77;31.34;102422.28;6204976;28;20245;-59
2021/03/29 11:25:21;;;;;;;7.30;4.90;;;;;;;23.87;32.32;102427.28;6204103;28;20252;-57
2021/03/29 11:28:42;;;;;;;7.80;4.03;;;;;;;25.33;29.77;102413.06;6206648;28;20237;-59
2021/03/29 11:32:02;;;;;;;7.10;4.13;;;;;;;25.49;28.81;102418.56;6192866;28;20414;-58
2021/03/29 11:35:23;;;;;;;7.00;4.53;;;;;;;27.87;25.47;102440.22;6207315;28;20225;-60
2021/03/29 11:38:44;;;;;;;9.23;4.72;;;;;;;24.74;30.24;102447.63;6203745;28;20234;-57
2021/03/29 11:42:05;;;;;;;5.90;4.93;;;;;;;24.01;31.33;102440.03;6203055;28;20280;-55
2021/03/29 11:45:25;;;;;;;8.38;4.90;;;;;;;24.40;30.47;102445.50;6201358;28;20234;-59
2021/03/29 11:48:46;;;;;;;6.40;4.47;;;;;;;24.11;30.92;102444.91;6197822;28;20226;-58
2021/03/29 11:52:06;;;;;;;10.52;5.15;;;;;;;24.85;29.77;102444.50;6210328;28;20245;-56
2021/03/29 11:55:28;;;;;;;6.72;4.50;;;;;;;23.76;32.52;102439.16;6197499;28;20583;-55
2021/03/29 11:58:49;;;;;;;4.95;4.13;;;;;;;23.57;32.47;102441.69;6200975;28;20228;-54
2021/03/29 12:02:13;;;;;;;9.15;5.25;;;;;;;25.92;29.60;102433.44;6203703;28;20241;-52
2021/03/29 12:05:36;;;;;;;6.05;4.18;;;;;;;29.80;23.61;102429.50;6205501;28;20221;-57
2021/03/29 12:09:01;;;;;;;5.25;4.10;;;;;;;29.57;23.63;102430.94;6202105;28;20229;-60
2021/03/29 12:12:22;;;;;;;7.70;4.93;;;;;;;28.89;24.74;102445.00;6198323;28;20257;-60
2021/03/29 12:15:47;;;;;;;5.95;4.25;;;;;;;25.23;30.49;102439.31;6201500;28;20497;-58
2021/03/29 12:19:08;;;;;;;5.28;4.18;;;;;;;27.41;27.55;102449.00;6182816;28;20242;-58
2021/03/29 12:22:29;;;;;;;5.55;4.55;;;;;;;24.46;31.91;102461.22;6209076;28;20631;-55
2021/03/29 12:25:52;;;;;;;8.15;4.82;;;;;;;26.53;28.26;102440.19;6208909;28;20426;-57
2021/03/29 12:29:16;;;;;;;8.95;5.85;;;;;;;24.06;31.66;102456.66;6201990;28;20315;-58
2021/03/29 12:32:38;;;;;;;7.97;5.60;;;;;;;23.12;34.27;102449.56;6203718;28;20242;-55
2021/03/29 12:35:58;;;;;;;9.43;5.53;;;;;;;24.01;32.47;102440.88;6210781;28;20233;-57
2021/03/29 12:39:23;;;;;;;10.77;5.63;;;;;;;23.59;33.21;102454.88;6212798;28;20237;-58
2021/03/29 12:43:03;;;;;;;7.57;5.15;;;;;;;21.80;37.16;102452.94;6205679;28;20237;-56
2021/03/29 12:46:25;;;;;;;9.13;6.20;;;;;;;26.25;29.57;102455.84;6202528;28;20366;-56
2021/03/29 12:49:46;;;;;;;7.18;5.47;;;;;;;24.58;31.90;102456.34;6207851;28;20233;-58
2021/03/29 12:53:09;;;;;;;6.75;4.78;;;;;;;23.95;33.01;102467.75;6207993;28;20253;-58
2021/03/29 12:56:30;;;;;;;10.52;5.60;;;;;;;27.41;27.62;102445.44;6206358;28;20242;-58
2021/03/29 12:59:50;;;;;;;7.15;5.10;;;;;;;21.94;36.98;102462.25;6211560;28;20245;-57
2021/03/29 13:03:12;;;;;;;6.05;4.70;;;;;;;27.15;29.03;102442.34;6203799;28;20260;-55
2021/03/29 13:06:38;;;;;;;7.30;6.10;;;;;;;22.33;36.07;102456.66;6197791;28;20233;-57
2021/03/29 13:10:05;;;;;;;8.15;5.15;;;;;;;20.43;40.46;102451.34;6209077;28;20252;-58
2021/03/29 13:13:25;;;;;;;7.03;5.28;;;;;;;21.11;39.69;102454.03;6208208;28;20240;-58
2021/03/29 13:16:46;;;;;;;9.18;6.25;;;;;;;19.50;43.18;102466.63;6206118;28;20706;-59
2021/03/29 13:20:10;;;;;;;6.95;6.07;;;;;;;23.53;35.04;102448.00;6210532;28;20233;-58
2021/03/29 13:23:31;;;;;;;7.78;6.05;;;;;;;23.27;35.18;102449.00;6191149;28;20233;-56
2021/03/29 13:26:51;;;;;;;10.43;6.38;;;;;;;20.18;41.74;102453.72;6207202;28;20241;-58
2021/03/29 13:30:14;;;;;;;6.95;4.93;;;;;;;20.60;41.28;102466.81;6200978;28;20225;-56
2021/03/29 13:33:34;;;;;;;7.60;5.00;;;;;;;20.69;40.96;102464.88;6207740;28;20229;-58
2021/03/29 13:36:56;;;;;;;7.85;5.53;;;;;;;20.86;41.20;102465.31;6206895;28;20225;-53
2021/03/29 13:40:18;;;;;;;7.45;4.97;;;;;;;21.12;40.83;102459.31;6205429;28;20229;-56
2021/03/29 13:43:41;;;;;;;10.13;5.82;;;;;;;21.88;39.17;102467.75;6208797;28;20237;-54
2021/03/29 13:47:01;;;;;;;8.05;5.78;;;;;;;21.75;39.13;102461.94;6199232;28;20229;-56
2021/03/29 13:50:24;;;;;;;10.05;5.22;;;;;;;21.35;40.53;102471.06;6216264;28;20263;-57
2021/03/29 13:53:53;;;;;;;8.55;6.68;;;;;;;21.90;38.85;102468.59;6212661;28;20492;-57
2021/03/29 13:57:13;;;;;;;12.35;5.53;;;;;;;20.81;41.10;102475.13;6211197;28;20236;-57
2021/03/29 14:00:35;;;;;;;5.63;5.05;;;;;;;22.13;38.88;102467.88;6199762;28;20333;-55
2021/03/29 14:03:55;;;;;;;8.13;5.53;;;;;;;23.57;35.88;102465.59;6211198;28;20241;-57
2021/03/29 14:07:17;;;;;;;7.32;5.35;;;;;;;22.43;38.24;102471.38;6206552;28;20343;-57
2021/03/29 14:10:39;;;;;;;6.75;5.63;;;;;;;22.50;38.30;102466.72;6212328;28;20244;-55
2021/03/29 14:14:00;;;;;;;7.13;5.32;;;;;;;23.22;36.49;102472.19;6209455;28;20316;-57
2021/03/29 14:17:21;;;;;;;8.43;5.80;;;;;;;21.73;39.63;102469.97;6210433;28;20313;-54
2021/03/29 14:20:42;;;;;;;7.32;5.15;;;;;;;23.60;36.33;102464.63;6204628;28;20264;-55
2021/03/29 14:24:03;;;;;;;7.28;4.82;;;;;;;24.05;35.03;102461.13;6200421;28;20234;-56
2021/03/29 14:27:25;;;;;;;7.38;5.15;;;;;;;24.85;33.43;102465.81;6216274;28;20225;-53
2021/03/29 14:30:45;;;;;;;8.40;6.05;;;;;;;24.17;35.06;102470.41;6208060;28;20649;-55
2021/03/29 14:34:09;;;;;;;7.90;5.53;;;;;;;23.61;35.81;102463.66;6218570;28;20245;-54
2021/03/29 14:41:24;;;;;;;8.00;5.65;;;;;;;22.16;39.23;102473.09;6186469;28;20694;-55
2021/03/29 14:44:45;;;;;;;19.60;17.02;;;;;;;24.42;35.34;102474.72;6204484;28;20257;-55
2021/03/29 14:48:06;;;;;;;7.38;5.43;;;;;;;24.67;34.88;102470.13;6196192;28;20225;-57
2021/03/29 14:51:28;;;;;;;8.80;5.72;;;;;;;24.10;36.03;102476.91;6202670;28;20230;-55
2021/03/29 14:54:51;;;;;;;10.02;5.72;;;;;;;23.04;37.81;102468.44;6203693;28;20241;-55
2021/03/29 14:58:11;;;;;;;7.07;5.40;;;;;;;22.90;38.62;102476.00;6209499;28;20237;-58
2021/03/29 15:01:33;;;;;;;11.88;8.20;;;;;;;23.41;37.43;102471.53;6202601;28;20615;-55
2021/03/29 15:04:56;;;;;;;7.38;5.25;;;;;;;23.55;37.52;102478.09;6209369;28;20233;-56
2021/03/29 15:08:17;;;;;;;8.80;5.93;;;;;;;23.83;36.93;102478.88;6202802;28;20234;-55
2021/03/29 15:11:37;;;;;;;8.10;5.50;;;;;;;23.47;37.40;102484.59;6215478;28;20882;-56
2021/03/29 15:14:57;;;;;;;10.55;6.15;;;;;;;23.66;37.19;102490.97;6213042;28;20241;-57
2021/03/29 15:18:19;;;;;;;7.55;6.05;;;;;;;23.28;37.82;102490.59;6213924;28;20228;-58
2021/03/29 15:21:40;;;;;;;7.65;4.72;;;;;;;23.45;37.62;102489.13;6190493;28;20283;-57
2021/03/29 15:25:00;;;;;;;5.38;4.78;;;;;;;23.16;38.41;102481.25;6215732;28;20669;-56
2021/03/29 15:28:22;;;;;;;11.68;5.88;;;;;;;23.59;37.49;102486.78;6217485;28;20630;-56
2021/03/29 15:31:43;;;;;;;9.65;5.72;;;;;;;23.49;38.00;102486.28;6197354;28;20237;-56
2021/03/29 15:35:07;;;;;;;9.38;7.13;;;;;;;23.46;37.31;102483.75;6211844;28;20649;-52
2021/03/29 15:38:27;;;;;;;7.90;5.40;;;;;;;22.83;38.61;102480.63;6207340;28;20254;-56
2021/03/29 15:41:49;;;;;;;9.57;5.80;;;;;;;22.98;38.82;102485.41;6202000;28;20229;-60